createdAt,value
2023-03-29T00:01:52.823Z,100948.84
2023-03-29T00:04:22.273Z,100939.13
2023-03-29T00:06:50.597Z,100926.19
2023-03-29T00:09:18.509Z,100913.63
2023-03-29T00:11:45.496Z,100899.75
2023-03-29T00:14:13.037Z,100897.88
2023-03-29T00:16:39.962Z,100899.13
2023-03-29T00:19:06.574Z,100900.44
2023-03-29T00:21:33.069Z,100893.06
2023-03-29T00:23:59.754Z,100888.38
2023-03-29T00:26:26.803Z,100892.00
2023-03-29T00:28:53.728Z,100904.88
2023-03-29T00:31:20.425Z,100902.69
2023-03-29T00:33:47.552Z,100900.78
2023-03-29T00:36:14.629Z,100900.75
2023-03-29T00:38:41.334Z,100902.00
2023-03-29T00:41:09.028Z,100894.03
2023-03-29T00:43:59.543Z,100892.69
2023-03-29T00:46:28.708Z,100888.81
2023-03-29T00:49:02.200Z,100886.56
2023-03-29T00:51:33.087Z,100885.16
2023-03-29T00:54:03.460Z,100882.09
2023-03-29T00:56:35.272Z,100877.53
2023-03-29T00:59:07.096Z,100877.41
2023-03-29T01:01:45.690Z,100878.44
2023-03-29T01:04:22.889Z,100881.41
2023-03-29T01:07:02.883Z,100874.19
2023-03-29T01:09:33.779Z,100866.94
2023-03-29T01:12:06.973Z,100866.50
2023-03-29T01:14:39.956Z,100856.28
2023-03-29T01:17:06.881Z,100857.38
2023-03-29T01:19:42.266Z,100853.00
2023-03-29T01:22:39.958Z,100849.00
2023-03-29T01:25:26.220Z,100850.63
2023-03-29T01:28:02.870Z,100843.56
2023-03-29T01:30:41.062Z,100831.63
2023-03-29T01:33:15.464Z,100826.97
2023-03-29T01:35:51.181Z,100825.69
2023-03-29T01:38:31.645Z,100831.81
2023-03-29T01:41:00.594Z,100821.38
2023-03-29T01:43:34.267Z,100819.59
2023-03-29T01:46:26.475Z,100813.03
2023-03-29T01:49:35.434Z,100818.31
2023-03-29T01:52:37.807Z,100803.22
2023-03-29T01:55:14.840Z,100807.41
2023-03-29T01:57:44.942Z,100809.25
2023-03-29T02:00:16.616Z,100803.78
2023-03-29T02:02:46.449Z,100812.19
2023-03-29T02:05:15.839Z,100809.50
2023-03-29T02:07:46.432Z,100807.91
2023-03-29T02:10:16.351Z,100804.94
2023-03-29T02:12:43.263Z,100793.53
2023-03-29T02:15:16.217Z,100801.13
2023-03-29T02:17:44.536Z,100799.09
2023-03-29T02:20:19.032Z,100789.53
2023-03-29T02:22:52.141Z,100793.84
2023-03-29T02:25:19.400Z,100791.13
2023-03-29T02:27:46.197Z,100790.84
2023-03-29T02:30:13.722Z,100792.38
2023-03-29T02:33:06.916Z,100793.47
2023-03-29T02:35:38.518Z,100782.03
2023-03-29T02:38:09.013Z,100775.25
2023-03-29T02:40:38.054Z,100773.63
2023-03-29T02:43:07.029Z,100772.91
2023-03-29T02:45:35.947Z,100772.88
2023-03-29T02:48:07.814Z,100776.41
2023-03-29T02:50:37.814Z,100766.47
2023-03-29T02:53:10.204Z,100758.41
2023-03-29T02:55:39.070Z,100767.53
2023-03-29T02:58:08.807Z,100757.66
2023-03-29T03:00:38.364Z,100760.34
2023-03-29T03:03:07.982Z,100766.88
2023-03-29T03:05:36.092Z,100751.56
2023-03-29T03:08:03.331Z,100745.31
2023-03-29T03:10:30.174Z,100753.50
2023-03-29T03:12:56.765Z,100741.31
2023-03-29T03:15:23.376Z,100747.19
2023-03-29T03:17:50.032Z,100741.09
2023-03-29T03:20:16.875Z,100740.25
2023-03-29T03:22:48.756Z,100740.66
2023-03-29T03:25:21.657Z,100738.06
2023-03-29T03:27:49.752Z,100737.66
2023-03-29T03:30:17.487Z,100724.09
2023-03-29T03:32:44.710Z,100734.75
2023-03-29T03:35:11.784Z,100730.81
2023-03-29T03:37:39.138Z,100731.53
2023-03-29T03:40:08.128Z,100737.00
2023-03-29T03:42:34.821Z,100725.28
2023-03-29T03:45:01.876Z,100729.03
2023-03-29T03:47:29.336Z,100729.66
2023-03-29T03:49:56.352Z,100731.19
2023-03-29T03:52:23.287Z,100733.66
2023-03-29T03:54:50.325Z,100724.44
2023-03-29T03:57:17.425Z,100723.00
2023-03-29T03:59:44.063Z,100725.50
2023-03-29T04:02:11.120Z,100723.34
2023-03-29T04:04:40.467Z,100734.81
2023-03-29T04:07:07.280Z,100726.44
2023-03-29T04:09:34.625Z,100726.13
2023-03-29T04:12:01.659Z,100725.13
2023-03-29T04:14:28.570Z,100716.81
2023-03-29T04:16:55.289Z,100727.72
2023-03-29T04:19:22.125Z,100720.84
2023-03-29T04:21:49.586Z,100718.69
2023-03-29T04:24:17.287Z,100721.63
2023-03-29T04:26:44.988Z,100715.00
2023-03-29T04:29:11.865Z,100719.97
2023-03-29T04:31:38.543Z,100708.81
2023-03-29T04:34:05.191Z,100716.25
2023-03-29T04:36:31.793Z,100719.16
2023-03-29T04:39:01.308Z,100716.94
2023-03-29T04:41:28.680Z,100714.22
2023-03-29T04:43:55.860Z,100713.88
2023-03-29T04:46:25.619Z,100705.78
2023-03-29T04:48:53.546Z,100706.94
2023-03-29T04:51:22.440Z,100710.81
2023-03-29T04:53:52.263Z,100706.50
2023-03-29T04:56:18.892Z,100708.34
2023-03-29T04:58:45.947Z,100702.44
2023-03-29T05:01:12.637Z,100708.75
2023-03-29T05:03:39.474Z,100697.50
2023-03-29T05:06:08.704Z,100703.47
2023-03-29T05:08:40.719Z,100697.53
2023-03-29T05:11:11.665Z,100699.66
2023-03-29T05:13:39.926Z,100704.19
2023-03-29T05:16:07.849Z,100704.50
2023-03-29T05:18:34.703Z,100700.31
2023-03-29T05:21:01.393Z,100696.56
2023-03-29T05:23:28.864Z,100702.06
2023-03-29T05:25:55.865Z,100702.75
2023-03-29T05:28:22.985Z,100701.03
2023-03-29T05:31:01.402Z,100699.06
2023-03-29T05:33:28.767Z,100694.66
2023-03-29T05:36:03.555Z,100698.13
2023-03-29T05:38:30.242Z,100702.53
2023-03-29T05:40:58.733Z,100709.66
2023-03-29T05:43:25.200Z,100713.13
2023-03-29T05:45:55.981Z,100704.59
2023-03-29T05:48:23.678Z,100707.03
2023-03-29T05:50:52.227Z,100706.66
2023-03-29T05:53:20.110Z,100701.53
2023-03-29T05:55:48.268Z,100704.31
2023-03-29T05:58:17.969Z,100706.41
2023-03-29T06:00:46.250Z,100703.13
2023-03-29T06:03:21.312Z,100702.44
2023-03-29T06:05:54.910Z,100698.38
2023-03-29T06:08:22.266Z,100702.34
2023-03-29T06:10:49.799Z,100695.66
2023-03-29T06:13:16.504Z,100701.00
2023-03-29T06:15:43.016Z,100703.88
2023-03-29T06:18:09.898Z,100702.25
2023-03-29T06:20:36.553Z,100695.59
2023-03-29T06:23:03.174Z,100692.75
2023-03-29T06:25:30.630Z,100699.25
2023-03-29T06:27:57.489Z,100707.50
2023-03-29T06:30:24.234Z,100706.34
2023-03-29T06:32:50.850Z,100709.28
2023-03-29T06:35:17.897Z,100713.16
2023-03-29T06:37:49.897Z,100717.31
2023-03-29T06:40:21.204Z,100722.88
2023-03-29T06:42:49.750Z,100718.78
2023-03-29T06:45:16.824Z,100724.94
2023-03-29T06:47:43.753Z,100716.84
2023-03-29T06:50:11.894Z,100718.56
2023-03-29T06:52:38.546Z,100723.66
2023-03-29T06:55:08.589Z,100726.31
2023-03-29T06:57:35.271Z,100720.44
2023-03-29T07:00:01.948Z,100723.22
2023-03-29T07:02:29.217Z,100726.19
2023-03-29T07:04:56.201Z,100721.47
2023-03-29T07:07:23.038Z,100723.00
2023-03-29T07:09:54.581Z,100718.38
2023-03-29T07:12:23.633Z,100720.13
2023-03-29T07:14:50.282Z,100716.47
2023-03-29T07:17:16.935Z,100720.16
2023-03-29T07:19:44.822Z,100717.16
2023-03-29T07:22:13.522Z,100727.28
2023-03-29T07:24:42.764Z,100725.63
2023-03-29T07:27:09.727Z,100730.69
2023-03-29T07:29:37.219Z,100729.75
2023-03-29T07:32:04.521Z,100730.91
2023-03-29T07:34:32.661Z,100724.31
2023-03-29T07:36:59.564Z,100725.41
2023-03-29T07:39:26.298Z,100729.81
2023-03-29T07:41:53.089Z,100736.50
2023-03-29T07:44:21.649Z,100748.00
2023-03-29T07:46:49.580Z,100741.06
2023-03-29T07:49:16.453Z,100734.38
2023-03-29T07:51:43.897Z,100736.56
2023-03-29T07:54:10.684Z,100734.41
2023-03-29T07:56:37.835Z,100739.88
2023-03-29T07:59:04.775Z,100743.66
2023-03-29T08:01:31.638Z,100747.06
2023-03-29T08:04:00.161Z,100741.09
2023-03-29T08:06:27.607Z,100745.41
2023-03-29T08:08:54.779Z,100744.44
2023-03-29T08:11:21.626Z,100743.91
2023-03-29T08:13:48.308Z,100746.63
2023-03-29T08:16:14.936Z,100741.56
2023-03-29T08:18:42.184Z,100741.03
2023-03-29T08:21:08.900Z,100737.06
2023-03-29T08:23:36.212Z,100738.72
2023-03-29T08:26:04.235Z,100739.84
2023-03-29T08:28:33.324Z,100728.25
2023-03-29T08:31:03.613Z,100728.53
2023-03-29T08:33:33.592Z,100723.19
2023-03-29T08:36:04.535Z,100722.84
2023-03-29T08:38:34.852Z,100720.16
2023-03-29T08:41:03.919Z,100723.03
2023-03-29T08:43:58.345Z,100720.88
2023-03-29T08:46:34.499Z,100715.53
2023-03-29T08:49:07.032Z,100727.47
2023-03-29T08:51:42.324Z,100726.88
2023-03-29T08:54:27.736Z,100730.53
2023-03-29T08:57:03.096Z,100719.66
2023-03-29T08:59:33.381Z,100721.78
2023-03-29T09:02:05.280Z,100716.47
2023-03-29T09:04:36.563Z,100714.94
2023-03-29T09:07:04.106Z,100711.69
2023-03-29T09:09:37.634Z,100721.22
2023-03-29T09:12:04.285Z,100725.22
2023-03-29T09:14:37.270Z,100722.38
2023-03-29T09:17:15.298Z,100736.34
2023-03-29T09:20:16.163Z,100740.22
2023-03-29T09:23:01.699Z,100729.19
2023-03-29T09:26:01.361Z,100725.81
2023-03-29T09:28:38.670Z,100724.72
2023-03-29T09:31:06.866Z,100730.41
2023-03-29T09:33:43.734Z,100735.34
2023-03-29T09:36:38.625Z,100737.75
2023-03-29T09:39:05.702Z,100725.53
2023-03-29T09:41:42.217Z,100728.09
2023-03-29T09:44:27.747Z,100712.00
2023-03-29T09:47:02.439Z,100710.75
2023-03-29T09:49:35.429Z,100707.34
2023-03-29T09:52:08.934Z,100699.88
2023-03-29T09:54:36.826Z,100714.47
2023-03-29T09:57:03.620Z,100708.25
2023-03-29T09:59:31.203Z,100710.88
2023-03-29T10:02:13.062Z,100713.16
2023-03-29T10:04:42.555Z,100720.84
2023-03-29T10:07:18.120Z,100713.97
2023-03-29T10:09:46.799Z,100713.59
2023-03-29T10:12:14.212Z,100724.09
2023-03-29T10:14:44.718Z,100726.25
2023-03-29T10:17:20.478Z,100704.78
2023-03-29T10:19:58.273Z,100713.56
2023-03-29T10:22:27.806Z,100700.53
2023-03-29T10:24:57.152Z,100699.28
2023-03-29T10:27:30.720Z,100700.84
2023-03-29T10:30:00.665Z,100703.06
2023-03-29T10:32:35.838Z,100693.91
2023-03-29T10:35:26.435Z,100684.09
2023-03-29T10:37:57.529Z,100680.72
2023-03-29T10:40:32.465Z,100676.50
2023-03-29T10:43:15.424Z,100664.94
2023-03-29T10:45:42.772Z,100658.03
2023-03-29T10:48:14.905Z,100656.16
2023-03-29T10:50:42.796Z,100671.09
2023-03-29T10:53:17.661Z,100663.00
2023-03-29T10:56:00.797Z,100650.97
2023-03-29T10:58:52.632Z,100658.31
2023-03-29T11:01:46.693Z,100643.97
2023-03-29T11:04:42.230Z,100662.09
2023-03-29T11:07:52.728Z,100664.69
2023-03-29T11:10:42.328Z,100665.44
2023-03-29T11:13:21.170Z,100667.16
2023-03-29T11:16:12.738Z,100661.44
2023-03-29T11:18:54.088Z,100662.72
2023-03-29T11:21:37.780Z,100663.91
2023-03-29T11:24:29.168Z,100665.13
2023-03-29T11:27:17.409Z,100663.03
2023-03-29T11:29:58.888Z,100669.56
2023-03-29T11:32:40.312Z,100658.78
2023-03-29T11:35:07.141Z,100664.63
2023-03-29T11:37:48.564Z,100658.84
2023-03-29T11:40:39.905Z,100645.88
2023-03-29T11:43:15.295Z,100648.50
2023-03-29T11:45:50.055Z,100648.25
2023-03-29T11:48:23.266Z,100654.44
2023-03-29T11:50:58.594Z,100644.03
2023-03-29T11:53:39.126Z,100639.72
2023-03-29T11:56:16.020Z,100635.69
2023-03-29T11:58:48.066Z,100626.50
2023-03-29T12:01:22.196Z,100633.22
2023-03-29T12:04:00.203Z,100630.22
2023-03-29T12:06:34.448Z,100631.06
2023-03-29T12:09:35.609Z,100634.69
2023-03-29T12:12:25.051Z,100639.25
2023-03-29T12:15:01.147Z,100624.63
2023-03-29T12:17:32.013Z,100621.19
2023-03-29T12:20:07.292Z,100611.75
2023-03-29T12:22:34.271Z,100600.09
2023-03-29T12:25:05.785Z,100605.41
2023-03-29T12:27:46.757Z,100605.47
2023-03-29T12:30:33.897Z,100599.25
2023-03-29T12:33:19.269Z,100604.31
2023-03-29T12:36:02.542Z,100595.59
2023-03-29T12:38:31.762Z,100601.00
2023-03-29T12:41:06.043Z,100594.09
2023-03-29T12:43:38.434Z,100594.94
2023-03-29T12:46:19.518Z,100576.53
2023-03-29T12:48:56.276Z,100568.25
2023-03-29T12:51:31.544Z,100583.16
2023-03-29T12:54:16.471Z,100575.50
2023-03-29T12:56:52.323Z,100581.97
2023-03-29T12:59:26.029Z,100584.81
2023-03-29T13:02:04.813Z,100588.06
2023-03-29T13:04:38.920Z,100573.38
2023-03-29T13:07:13.698Z,100565.16
2023-03-29T13:09:52.472Z,100573.78
2023-03-29T13:12:39.124Z,100570.75
2023-03-29T13:15:21.419Z,100560.16
2023-03-29T13:17:58.327Z,100551.47
2023-03-29T13:20:40.323Z,100559.28
2023-03-29T13:23:38.391Z,100541.22
2023-03-29T13:26:30.676Z,100547.34
2023-03-29T13:29:12.033Z,100533.66
2023-03-29T13:31:51.711Z,100541.47
2023-03-29T13:34:47.464Z,100542.13
2023-03-29T13:37:29.938Z,100544.84
2023-03-29T13:39:57.631Z,100537.75
2023-03-29T13:42:33.331Z,100539.59
2023-03-29T13:45:09.557Z,100532.34
2023-03-29T13:47:58.385Z,100538.53
2023-03-29T13:50:40.761Z,100528.06
2023-03-29T13:53:22.530Z,100528.91
2023-03-29T13:55:52.416Z,100521.28
2023-03-29T13:58:38.195Z,100514.97
2023-03-29T14:01:27.228Z,100519.19
2023-03-29T14:03:57.728Z,100512.34
2023-03-29T14:06:29.189Z,100511.47
2023-03-29T14:08:57.475Z,100503.03
2023-03-29T14:11:29.924Z,100501.22
2023-03-29T14:14:01.501Z,100506.81
2023-03-29T14:16:38.854Z,100506.09
2023-03-29T14:19:37.061Z,100506.44
2023-03-29T14:22:19.895Z,100499.25
2023-03-29T14:24:54.785Z,100497.81
2023-03-29T14:27:36.121Z,100484.09
2023-03-29T14:30:30.656Z,100476.38
2023-03-29T14:32:59.427Z,100480.69
2023-03-29T14:35:37.569Z,100481.22
2023-03-29T14:38:04.242Z,100479.47
2023-03-29T14:40:33.967Z,100478.59
2023-03-29T14:43:10.293Z,100482.00
2023-03-29T14:45:41.784Z,100465.63
2023-03-29T14:48:18.324Z,100461.75
2023-03-29T14:50:46.368Z,100462.28
2023-03-29T14:53:30.560Z,100453.53
2023-03-29T14:55:59.206Z,100446.53
2023-03-29T14:58:33.037Z,100449.31
2023-03-29T15:01:09.411Z,100442.22
2023-03-29T15:04:11.458Z,100442.22
2023-03-29T15:06:47.883Z,100426.03
2023-03-29T15:09:31.358Z,100421.06
2023-03-29T15:12:00.603Z,100423.00
2023-03-29T15:14:43.869Z,100408.88
2023-03-29T15:17:31.293Z,100401.84
2023-03-29T15:20:31.611Z,100398.84
2023-03-29T15:23:14.887Z,100402.59
2023-03-29T15:26:03.969Z,100419.41
2023-03-29T15:28:41.156Z,100421.63
2023-03-29T15:31:21.744Z,100417.44
2023-03-29T15:33:52.018Z,100407.19
2023-03-29T15:36:24.800Z,100416.34
2023-03-29T15:38:58.128Z,100407.72
2023-03-29T15:41:28.156Z,100399.91
2023-03-29T15:44:02.749Z,100399.16
2023-03-29T15:46:37.681Z,100406.19
2023-03-29T15:49:05.187Z,100398.38
2023-03-29T15:51:34.642Z,100403.16
2023-03-29T15:54:01.676Z,100396.34
2023-03-29T15:56:28.573Z,100392.16
2023-03-29T15:58:56.685Z,100389.66
2023-03-29T16:01:36.635Z,100389.88
2023-03-29T16:04:09.354Z,100386.84
2023-03-29T16:06:36.233Z,100388.94
2023-03-29T16:09:03.756Z,100371.97
2023-03-29T16:11:30.727Z,100377.91
2023-03-29T16:13:58.157Z,100376.31
2023-03-29T16:16:25.418Z,100364.13
2023-03-29T16:18:52.069Z,100363.31
2023-03-29T16:21:22.398Z,100364.38
2023-03-29T16:23:51.498Z,100355.69
2023-03-29T16:26:19.231Z,100358.13
2023-03-29T16:28:46.389Z,100359.56
2023-03-29T16:31:15.742Z,100353.53
2023-03-29T16:33:42.536Z,100356.03
2023-03-29T16:36:10.215Z,100357.41
2023-03-29T16:38:37.137Z,100345.75
2023-03-29T16:41:04.098Z,100355.50
2023-03-29T16:43:31.641Z,100351.13
2023-03-29T16:45:58.401Z,100341.34
2023-03-29T16:48:24.971Z,100354.19
2023-03-29T16:50:51.771Z,100349.31
2023-03-29T16:53:21.222Z,100342.00
2023-03-29T16:55:50.671Z,100340.25
2023-03-29T16:58:17.211Z,100335.66
2023-03-29T17:00:48.159Z,100336.19
2023-03-29T17:03:16.361Z,100338.00
2023-03-29T17:05:50.896Z,100344.53
2023-03-29T17:08:19.649Z,100342.81
2023-03-29T17:10:47.052Z,100345.34
2023-03-29T17:13:14.724Z,100342.38
2023-03-29T17:15:41.578Z,100330.66
2023-03-29T17:18:08.509Z,100329.88
2023-03-29T17:20:40.396Z,100319.44
2023-03-29T17:23:08.748Z,100324.16
2023-03-29T17:25:35.836Z,100331.16
2023-03-29T17:28:03.820Z,100331.78
2023-03-29T17:30:31.063Z,100333.00
2023-03-29T17:32:57.661Z,100314.34
2023-03-29T17:35:24.366Z,100318.06
2023-03-29T17:37:51.116Z,100316.63
2023-03-29T17:40:18.529Z,100317.69
2023-03-29T17:42:48.914Z,100307.91
2023-03-29T17:45:15.932Z,100323.44
2023-03-29T17:47:42.733Z,100328.13
2023-03-29T17:50:12.912Z,100323.81
2023-03-29T17:52:47.422Z,100300.06
2023-03-29T17:55:15.530Z,100292.91
2023-03-29T17:57:43.506Z,100321.19
2023-03-29T18:00:13.990Z,100323.06
2023-03-29T18:02:43.705Z,100326.78
2023-03-29T18:05:10.627Z,100315.81
2023-03-29T18:07:37.475Z,100291.53
2023-03-29T18:10:06.298Z,100295.97
2023-03-29T18:12:33.043Z,100308.75
2023-03-29T18:14:59.733Z,100295.75
2023-03-29T18:17:27.696Z,100297.31
2023-03-29T18:19:54.850Z,100288.63
2023-03-29T18:22:24.254Z,100301.53
2023-03-29T18:24:51.118Z,100302.97
2023-03-29T18:27:18.107Z,100314.59
2023-03-29T18:29:44.759Z,100313.41
2023-03-29T18:32:12.104Z,100317.78
2023-03-29T18:34:39.449Z,100327.72
2023-03-29T18:37:06.313Z,100321.25
2023-03-29T18:39:34.969Z,100315.50
2023-03-29T18:42:01.807Z,100320.13
2023-03-29T18:44:28.674Z,100309.53
2023-03-29T18:46:55.295Z,100302.13
2023-03-29T18:49:21.872Z,100297.66
2023-03-29T18:51:50.056Z,100322.34
2023-03-29T18:54:17.521Z,100290.56
2023-03-29T18:56:45.275Z,100297.94
2023-03-29T18:59:11.906Z,100288.63
2023-03-29T19:01:38.875Z,100297.84
2023-03-29T19:04:06.195Z,100291.88
2023-03-29T19:06:32.913Z,100283.94
2023-03-29T19:09:02.067Z,100286.66
2023-03-29T19:11:29.610Z,100291.63
2023-03-29T19:13:56.421Z,100290.78
2023-03-29T19:16:23.607Z,100299.97
2023-03-29T19:18:51.847Z,100304.84
2023-03-29T19:21:18.491Z,100302.50
2023-03-29T19:23:46.060Z,100308.25
2023-03-29T19:26:14.905Z,100306.34
2023-03-29T19:28:41.534Z,100306.75
2023-03-29T19:31:08.357Z,100314.69
2023-03-29T19:33:35.119Z,100314.03
2023-03-29T19:36:02.114Z,100307.19
2023-03-29T19:38:29.127Z,100311.06
2023-03-29T19:40:56.800Z,100301.63
2023-03-29T19:43:24.897Z,100299.97
2023-03-29T19:45:51.541Z,100303.47
2023-03-29T19:48:23.584Z,100293.19
2023-03-29T19:50:51.245Z,100293.19
2023-03-29T19:53:17.952Z,100294.75
2023-03-29T19:55:45.985Z,100279.88
2023-03-29T19:58:12.926Z,100276.03
2023-03-29T20:00:39.937Z,100268.41
2023-03-29T20:03:12.450Z,100263.00
2023-03-29T20:05:39.896Z,100261.88
2023-03-29T20:08:07.801Z,100255.34
2023-03-29T20:10:35.998Z,100258.44
2023-03-29T20:13:03.480Z,100254.59
2023-03-29T20:15:30.072Z,100254.63
2023-03-29T20:17:59.288Z,100243.25
2023-03-29T20:20:27.344Z,100237.50
2023-03-29T20:23:04.524Z,100222.13
2023-03-29T20:25:32.578Z,100209.50
2023-03-29T20:27:59.856Z,100205.00
2023-03-29T20:30:26.678Z,100205.06
2023-03-29T20:32:54.852Z,100196.31
2023-03-29T20:35:21.710Z,100195.94
2023-03-29T20:37:48.245Z,100205.09
2023-03-29T20:40:15.916Z,100198.22
2023-03-29T20:42:46.306Z,100194.00
2023-03-29T20:45:18.821Z,100192.16
2023-03-29T20:47:50.681Z,100186.78
2023-03-29T20:50:19.182Z,100173.47
2023-03-29T20:52:45.978Z,100177.66
2023-03-29T20:55:13.300Z,100185.63
2023-03-29T20:57:42.151Z,100176.06
2023-03-29T21:00:12.221Z,100178.78
2023-03-29T21:02:41.489Z,100181.78
2023-03-29T21:05:09.236Z,100168.88
2023-03-29T21:07:36.324Z,100173.09
2023-03-29T21:10:04.462Z,100174.22
2023-03-29T21:12:33.923Z,100178.41
2023-03-29T21:15:02.254Z,100175.38
2023-03-29T21:17:28.867Z,100170.03
2023-03-29T21:19:55.885Z,100160.47
2023-03-29T21:22:23.237Z,100153.25
2023-03-29T21:24:49.780Z,100150.59
2023-03-29T21:27:16.624Z,100152.47
2023-03-29T21:29:44.626Z,100139.50
2023-03-29T21:32:11.593Z,100134.94
2023-03-29T21:34:38.364Z,100137.63
2023-03-29T21:37:05.333Z,100145.59
2023-03-29T21:39:32.143Z,100132.66
2023-03-29T21:41:59.486Z,100128.81
2023-03-29T21:44:26.730Z,100120.06
2023-03-29T21:46:53.734Z,100117.41
2023-03-29T21:49:20.512Z,100119.69
2023-03-29T21:51:47.109Z,100125.03
2023-03-29T21:54:13.960Z,100122.72
2023-03-29T21:56:40.563Z,100119.69
2023-03-29T21:59:09.768Z,100114.34
2023-03-29T22:01:36.464Z,100119.31
2023-03-29T22:04:04.225Z,100112.81
2023-03-29T22:06:31.238Z,100106.72
2023-03-29T22:09:00.711Z,100110.16
2023-03-29T22:11:31.009Z,100105.22
2023-03-29T22:13:57.686Z,100101.00
2023-03-29T22:16:25.831Z,100105.94
2023-03-29T22:18:54.301Z,100089.16
2023-03-29T22:21:33.331Z,100083.44
2023-03-29T22:24:01.236Z,100088.41
2023-03-29T22:26:31.174Z,100070.88
2023-03-29T22:28:59.051Z,100089.94
2023-03-29T22:31:27.068Z,100086.16
2023-03-29T22:33:54.140Z,100093.75
2023-03-29T22:36:24.406Z,100089.13
2023-03-29T22:38:53.766Z,100089.94
2023-03-29T22:41:24.812Z,100086.47
2023-03-29T22:43:52.516Z,100094.50
2023-03-29T22:46:20.721Z,100085.69
2023-03-29T22:48:51.135Z,100083.44
2023-03-29T22:51:17.986Z,100088.00
2023-03-29T22:53:44.684Z,100083.81
2023-03-29T22:56:13.674Z,100091.06
2023-03-29T22:58:40.487Z,100090.69
2023-03-29T23:01:07.885Z,100098.34
2023-03-29T23:03:34.768Z,100088.06
2023-03-29T23:06:04.794Z,100086.94
2023-03-29T23:08:33.425Z,100087.69
2023-03-29T23:11:00.422Z,100078.50
2023-03-29T23:13:29.012Z,100088.44
2023-03-29T23:16:01.557Z,100079.28
2023-03-29T23:18:29.458Z,100075.09
2023-03-29T23:20:57.525Z,100071.66
2023-03-29T23:23:26.680Z,100070.50
2023-03-29T23:25:55.349Z,100069.41
2023-03-29T23:28:26.043Z,100071.28
2023-03-29T23:31:00.300Z,100063.66
2023-03-29T23:33:30.703Z,100061.00
2023-03-29T23:35:59.539Z,100056.41
2023-03-29T23:38:27.987Z,100047.63
2023-03-29T23:40:59.412Z,100039.63
2023-03-29T23:43:31.770Z,100034.28
2023-03-29T23:46:05.802Z,100027.44
2023-03-29T23:48:34.048Z,100028.97
2023-03-29T23:51:01.352Z,100025.16
2023-03-29T23:53:29.294Z,100015.22
2023-03-29T23:56:00.387Z,100019.03
2023-03-29T23:58:32.789Z,100014.88
